EGLC/LCY METAR and TAF weather

Enter ICAO airport designator
Station Type Date Time Source
EGLC METAR 2022/12/10 02:20 UTC NOAA

EGLC 100220Z AUTO 22005KT 9999 NCD M01/M02 Q1010


Station Type Date Time Source
EGLC Decoded METAR 2022/12/10 02:20 UTC NOAA

London City Airport, United Kingdom (EGLC) 51-30N 000-30W
Dec 09, 2022 - 09:20 PM EST / 2022.12.10 0220 UTC
Wind: from the SW (220 degrees) at 6 MPH (5 KT):0
Visibility: greater than 7 mile(s):0
Temperature: 30 F (-1 C)
Windchill: 23 F (-5 C):1
Dew Point: 28 F (-2 C)
Relative Humidity: 92%
Pressure (altimeter): 29.83 in. Hg (1010 hPa)
ob: EGLC 100220Z AUTO 22005KT 9999 NCD M01/M02 Q1010
cycle: 2

Station Type Date Time Source
EGLC TAF 2022/08/24 18:09 UTC NOAA

TAF EGLC 241659Z 2418/2521 22006KT CAVOK

Example: see airport list